Pleasant View, Illinois
Current Conditions -  °F | °C
As of 11:55 AM on Thursday 30 Oct 2014 (Local Time) from KMQB Reporting Station
Overcast Overcast  
Wind Chill: 42°   Ceiling: 7500
Heat Index: 46°   Visibility: 10mi
Dew Point: 39°   Wind: 8mph
Humidity: 74%   Direction: 170°S
Pressure: 30.11"   Gusts: NA
Location:  40.1451°N, 90.5648°W
Report Text: KMQB 301655Z AUTO 17007KT 10SM OVC075 08/04 A3011 RMK AO2 T00800037
Loading
Personal Weather Stations






























Interactive Weather Map
Tropical Storm Tracking
New forecast layout! Learn more

10-Day Weather Forecast

Advertisements
Track Severe Weather on mobile